createdAt,value
2023-02-01T00:01:33.706Z,3.38
2023-02-01T00:04:02.072Z,3.05
2023-02-01T00:06:30.568Z,3.05
2023-02-01T00:08:58.950Z,3.38
2023-02-01T00:11:28.934Z,2.75
2023-02-01T00:13:57.104Z,3.83
2023-02-01T00:16:27.156Z,3.55
2023-02-01T00:19:04.747Z,3.92
2023-02-01T00:21:33.727Z,3.80
2023-02-01T00:24:01.927Z,3.40
2023-02-01T00:26:34.750Z,3.05
2023-02-01T00:29:03.845Z,3.33
2023-02-01T00:31:32.749Z,3.92
2023-02-01T00:34:01.313Z,3.45
2023-02-01T00:36:30.229Z,3.15
2023-02-01T00:38:58.668Z,3.88
2023-02-01T00:41:27.516Z,3.50
2023-02-01T00:43:57.259Z,4.40
2023-02-01T00:46:26.976Z,3.78
2023-02-01T00:48:55.936Z,3.05
2023-02-01T00:51:27.131Z,3.42
2023-02-01T00:53:55.834Z,3.17
2023-02-01T00:56:24.037Z,3.85
2023-02-01T00:58:52.595Z,3.38
2023-02-01T01:01:23.953Z,3.63
2023-02-01T01:03:54.915Z,3.03
2023-02-01T01:06:27.455Z,3.92
2023-02-01T01:08:58.357Z,3.80
2023-02-01T01:11:29.530Z,3.35
2023-02-01T01:13:59.307Z,3.80
2023-02-01T01:16:31.254Z,4.03
2023-02-01T01:19:00.349Z,3.10
2023-02-01T01:21:28.924Z,3.63
2023-02-01T01:23:57.697Z,4.53
2023-02-01T01:26:27.863Z,3.80
2023-02-01T01:28:57.938Z,3.55
2023-02-01T01:31:28.705Z,3.33
2023-02-01T01:33:58.872Z,3.85
2023-02-01T01:36:27.831Z,3.90
2023-02-01T01:38:56.020Z,3.30
2023-02-01T01:41:26.738Z,4.35
2023-02-01T01:43:57.773Z,3.63
2023-02-01T01:46:29.141Z,3.15
2023-02-01T01:49:03.807Z,2.90
2023-02-01T01:51:34.699Z,3.70
2023-02-01T01:54:06.756Z,3.15
2023-02-01T01:56:36.825Z,3.28
2023-02-01T01:59:06.681Z,4.47
2023-02-01T02:01:36.220Z,3.13
2023-02-01T02:04:06.035Z,4.07
2023-02-01T02:06:46.359Z,3.33
2023-02-01T02:09:14.751Z,3.35
2023-02-01T02:11:43.234Z,3.00
2023-02-01T02:14:14.480Z,3.20
2023-02-01T02:17:19.098Z,3.95
2023-02-01T02:20:24.909Z,3.40
2023-02-01T02:23:27.837Z,3.08
2023-02-01T02:26:27.605Z,3.35
2023-02-01T02:29:36.562Z,3.47
2023-02-01T02:32:35.407Z,4.30
2023-02-01T02:35:11.692Z,3.45
2023-02-01T02:37:44.301Z,3.08
2023-02-01T02:40:21.972Z,4.20
2023-02-01T02:43:18.613Z,2.80
2023-02-01T02:46:10.318Z,3.25
2023-02-01T02:48:46.191Z,4.18
2023-02-01T02:51:38.527Z,4.03
2023-02-01T02:54:27.404Z,3.85
2023-02-01T02:57:16.494Z,2.88
2023-02-01T03:00:04.609Z,3.63
2023-02-01T03:02:51.505Z,4.07
2023-02-01T03:05:21.844Z,4.25
2023-02-01T03:08:04.321Z,4.07
2023-02-01T03:10:40.892Z,4.15
2023-02-01T03:13:14.176Z,4.32
2023-02-01T03:15:48.539Z,4.45
2023-02-01T03:18:21.114Z,3.85
2023-02-01T03:20:53.271Z,4.07
2023-02-01T03:23:30.098Z,4.63
2023-02-01T03:26:00.222Z,3.97
2023-02-01T03:28:32.031Z,4.50
2023-02-01T03:31:01.048Z,4.53
2023-02-01T03:33:31.186Z,4.40
2023-02-01T03:36:08.615Z,3.90
2023-02-01T03:38:42.571Z,4.38
2023-02-01T03:41:16.236Z,3.83
2023-02-01T03:43:52.439Z,4.20
2023-02-01T03:46:26.902Z,3.72
2023-02-01T03:48:56.567Z,4.38
2023-02-01T03:51:26.121Z,4.13
2023-02-01T03:53:57.299Z,3.42
2023-02-01T03:56:29.327Z,3.47
2023-02-01T03:59:00.828Z,4.30
2023-02-01T04:01:30.829Z,2.95
2023-02-01T04:03:59.790Z,3.22
2023-02-01T04:06:28.251Z,2.78
2023-02-01T04:08:58.172Z,4.38
2023-02-01T04:11:28.388Z,3.90
2023-02-01T04:13:56.490Z,3.58
2023-02-01T04:16:24.749Z,3.00
2023-02-01T04:21:20.313Z,2.95
2023-02-01T04:23:48.483Z,3.20
2023-02-01T04:26:18.219Z,3.25
2023-02-01T04:28:49.176Z,3.30
2023-02-01T04:31:19.381Z,2.97
2023-02-01T04:33:47.942Z,3.10
2023-02-01T04:36:16.301Z,2.90
2023-02-01T04:38:44.685Z,4.28
2023-02-01T04:41:13.003Z,3.28
2023-02-01T04:43:42.661Z,3.17
2023-02-01T04:46:11.137Z,3.97
2023-02-01T04:48:40.025Z,3.35
2023-02-01T04:51:08.916Z,2.85
2023-02-01T04:53:37.032Z,3.60
2023-02-01T04:56:05.979Z,4.03
2023-02-01T04:58:34.561Z,3.15
2023-02-01T05:01:06.482Z,3.78
2023-02-01T05:03:34.715Z,4.43
2023-02-01T05:06:05.127Z,3.97
2023-02-01T05:08:34.266Z,3.70
2023-02-01T05:11:04.382Z,2.95
2023-02-01T05:13:50.192Z,3.85
2023-02-01T05:16:19.797Z,4.93
2023-02-01T05:18:48.123Z,3.08
2023-02-01T05:21:16.686Z,5.72
2023-02-01T05:24:04.089Z,3.42
2023-02-01T05:26:32.397Z,3.15
2023-02-01T05:29:00.612Z,3.15
2023-02-01T05:31:30.455Z,4.30
2023-02-01T05:33:58.816Z,3.47
2023-02-01T05:36:27.620Z,3.63
2023-02-01T05:38:55.934Z,3.28
2023-02-01T05:41:24.563Z,3.15
2023-02-01T05:43:52.962Z,3.17
2023-02-01T05:46:21.475Z,2.95
2023-02-01T05:48:51.501Z,3.40
2023-02-01T05:51:20.175Z,3.15
2023-02-01T05:53:48.520Z,3.80
2023-02-01T05:56:20.378Z,3.38
2023-02-01T05:58:48.658Z,3.05
2023-02-01T06:01:16.901Z,3.20
2023-02-01T06:03:45.259Z,3.00
2023-02-01T06:06:15.027Z,3.17
2023-02-01T06:08:43.189Z,3.10
2023-02-01T06:11:15.287Z,3.58
2023-02-01T06:13:48.924Z,3.35
2023-02-01T06:16:17.170Z,3.50
2023-02-01T06:18:45.647Z,4.03
2023-02-01T06:21:24.587Z,3.42
2023-02-01T06:23:52.884Z,3.42
2023-02-01T06:26:21.388Z,3.80
2023-02-01T06:28:49.620Z,4.82
2023-02-01T06:31:18.273Z,3.83
2023-02-01T06:33:47.823Z,3.42
2023-02-01T06:36:19.365Z,3.38
2023-02-01T06:38:47.803Z,4.00
2023-02-01T06:41:16.497Z,3.25
2023-02-01T06:43:46.521Z,3.22
2023-02-01T06:46:15.746Z,3.42
2023-02-01T06:48:43.980Z,3.40
2023-02-01T06:51:23.805Z,3.00
2023-02-01T06:53:52.128Z,3.78
2023-02-01T06:56:24.544Z,3.70
2023-02-01T06:58:53.422Z,3.40
2023-02-01T07:01:21.837Z,4.05
2023-02-01T07:03:51.888Z,3.58
2023-02-01T07:06:22.007Z,5.30
2023-02-01T07:08:50.669Z,3.30
2023-02-01T07:11:21.133Z,3.58
2023-02-01T07:13:49.580Z,3.47
2023-02-01T07:16:20.829Z,4.18
2023-02-01T07:18:49.339Z,4.07
2023-02-01T07:21:17.620Z,4.43
2023-02-01T07:23:47.217Z,3.95
2023-02-01T07:26:17.513Z,4.50
2023-02-01T07:28:46.097Z,4.88
2023-02-01T07:31:16.437Z,4.65
2023-02-01T07:33:44.629Z,3.97
2023-02-01T07:36:15.144Z,3.90
2023-02-01T07:38:43.711Z,3.83
2023-02-01T07:41:13.195Z,4.57
2023-02-01T07:43:41.366Z,3.17
2023-02-01T07:46:10.209Z,3.53
2023-02-01T07:48:38.727Z,3.70
2023-02-01T07:51:10.068Z,3.75
2023-02-01T07:53:39.420Z,3.35
2023-02-01T07:56:15.031Z,5.40
2023-02-01T07:58:44.209Z,4.32
2023-02-01T08:01:22.204Z,3.88
2023-02-01T08:03:51.172Z,4.07
2023-02-01T08:06:20.457Z,3.72
2023-02-01T08:08:48.808Z,3.67
2023-02-01T08:11:19.136Z,3.78
2023-02-01T08:13:48.465Z,4.10
2023-02-01T08:16:18.672Z,3.92
2023-02-01T08:18:47.434Z,4.47
2023-02-01T08:21:17.840Z,4.53
2023-02-01T08:23:46.653Z,3.70
2023-02-01T08:26:17.061Z,3.53
2023-02-01T08:28:48.871Z,4.22
2023-02-01T08:31:19.068Z,3.08
2023-02-01T08:33:52.596Z,3.63
2023-02-01T08:36:21.613Z,3.40
2023-02-01T08:38:50.196Z,3.75
2023-02-01T08:41:23.035Z,4.35
2023-02-01T08:43:56.137Z,3.92
2023-02-01T08:46:25.160Z,3.65
2023-02-01T08:48:53.818Z,3.90
2023-02-01T08:51:24.536Z,3.55
2023-02-01T08:53:53.258Z,3.47
2023-02-01T08:56:22.156Z,3.67
2023-02-01T08:58:51.883Z,3.60
2023-02-01T09:01:21.583Z,3.40
2023-02-01T09:03:49.837Z,3.67
2023-02-01T09:06:20.958Z,4.30
2023-02-01T09:08:49.320Z,3.55
2023-02-01T09:11:20.432Z,4.15
2023-02-01T09:13:49.966Z,3.30
2023-02-01T09:16:18.228Z,4.10
2023-02-01T09:18:56.202Z,4.68
2023-02-01T09:21:36.832Z,3.45
2023-02-01T09:24:06.046Z,3.58
2023-02-01T09:26:34.599Z,3.50
2023-02-01T09:29:03.146Z,4.30
2023-02-01T09:31:34.213Z,3.40
2023-02-01T09:34:04.162Z,4.18
2023-02-01T09:36:32.680Z,7.20
2023-02-01T09:39:06.178Z,4.05
2023-02-01T09:41:47.654Z,3.55
2023-02-01T09:44:42.428Z,4.05
2023-02-01T09:47:20.383Z,3.40
2023-02-01T09:49:55.373Z,3.45
2023-02-01T09:52:31.639Z,3.40
2023-02-01T09:55:05.902Z,3.55
2023-02-01T09:57:46.260Z,3.22
2023-02-01T10:00:22.801Z,3.08
2023-02-01T10:02:52.404Z,3.67
2023-02-01T10:05:36.663Z,3.83
2023-02-01T10:08:12.587Z,3.50
2023-02-01T10:10:49.059Z,3.08
2023-02-01T10:13:36.571Z,3.45
2023-02-01T10:16:16.011Z,3.97
2023-02-01T10:19:02.969Z,3.03
2023-02-01T10:21:48.676Z,2.70
2023-02-01T10:24:31.121Z,2.40
2023-02-01T10:27:04.618Z,2.80
2023-02-01T10:29:39.148Z,2.30
2023-02-01T10:32:15.132Z,3.05
2023-02-01T10:34:44.522Z,3.17
2023-02-01T10:37:22.608Z,3.00
2023-02-01T10:39:51.635Z,2.58
2023-02-01T10:42:29.029Z,3.42
2023-02-01T10:44:59.707Z,2.80
2023-02-01T10:47:28.094Z,3.25
2023-02-01T10:50:04.949Z,2.92
2023-02-01T10:52:40.863Z,3.10
2023-02-01T10:55:28.487Z,2.63
2023-02-01T10:57:59.176Z,3.17
2023-02-01T11:00:28.116Z,2.97
2023-02-01T11:02:57.361Z,2.80
2023-02-01T11:05:27.497Z,2.92
2023-02-01T11:07:57.759Z,2.88
2023-02-01T11:10:38.634Z,2.95
2023-02-01T11:13:07.425Z,2.80
2023-02-01T11:15:35.671Z,2.70
2023-02-01T11:18:18.049Z,2.83
2023-02-01T11:20:50.188Z,2.97
2023-02-01T11:23:22.050Z,2.65
2023-02-01T11:25:53.066Z,3.10
2023-02-01T11:28:25.356Z,2.53
2023-02-01T11:30:57.136Z,2.58
2023-02-01T11:33:30.786Z,2.15
2023-02-01T11:36:00.125Z,2.33
2023-02-01T11:38:32.229Z,2.45
2023-02-01T11:41:14.689Z,2.55
2023-02-01T11:43:57.586Z,2.72
2023-02-01T11:46:31.037Z,2.53
2023-02-01T11:49:20.351Z,2.95
2023-02-01T11:51:59.586Z,2.88
2023-02-01T11:54:52.725Z,2.83
2023-02-01T11:57:36.171Z,2.67
2023-02-01T12:00:25.982Z,2.30
2023-02-01T12:03:16.840Z,2.60
2023-02-01T12:05:54.460Z,2.20
2023-02-01T12:08:53.335Z,2.33
2023-02-01T12:11:38.340Z,2.90
2023-02-01T12:14:20.363Z,3.30
2023-02-01T12:16:58.250Z,2.88
2023-02-01T12:19:39.496Z,2.90
2023-02-01T12:22:21.611Z,2.83
2023-02-01T12:25:20.972Z,2.97
2023-02-01T12:28:13.667Z,3.17
2023-02-01T12:31:11.103Z,2.50
2023-02-01T12:33:52.208Z,2.97
2023-02-01T12:36:27.496Z,3.13
2023-02-01T12:39:00.634Z,2.80
2023-02-01T12:41:44.408Z,2.50
2023-02-01T12:44:25.426Z,2.80
2023-02-01T12:46:57.190Z,3.10
2023-02-01T12:49:30.911Z,3.00
2023-02-01T12:52:04.036Z,2.70
2023-02-01T12:54:39.566Z,2.80
2023-02-01T12:57:13.505Z,2.55
2023-02-01T12:59:49.289Z,2.95
2023-02-01T13:02:23.739Z,3.35
2023-02-01T13:05:02.812Z,3.10
2023-02-01T13:07:36.255Z,3.65
2023-02-01T13:10:14.658Z,2.55
2023-02-01T13:12:49.606Z,3.10
2023-02-01T13:15:25.179Z,3.15
2023-02-01T13:17:56.571Z,3.30
2023-02-01T13:20:31.535Z,2.90
2023-02-01T13:23:04.964Z,2.53
2023-02-01T13:25:42.068Z,3.17
2023-02-01T13:28:20.177Z,3.33
2023-02-01T13:31:16.281Z,2.47
2023-02-01T13:34:06.873Z,2.38
2023-02-01T13:36:51.654Z,3.10
2023-02-01T13:39:41.136Z,2.88
2023-02-01T13:42:20.935Z,2.38
2023-02-01T13:44:52.471Z,2.85
2023-02-01T13:47:31.893Z,2.53
2023-02-01T13:50:04.079Z,2.08
2023-02-01T13:52:39.784Z,2.58
2023-02-01T13:55:31.623Z,2.50
2023-02-01T13:58:15.865Z,3.03
2023-02-01T14:00:45.030Z,2.42
2023-02-01T14:03:19.036Z,3.00
2023-02-01T14:06:34.954Z,2.78
2023-02-01T14:09:38.088Z,3.08
2023-02-01T14:12:49.016Z,2.58
2023-02-01T14:15:24.427Z,2.80
2023-02-01T14:17:53.264Z,2.42
2023-02-01T14:20:50.023Z,2.53
2023-02-01T14:23:27.677Z,3.00
2023-02-01T14:26:20.941Z,2.40
2023-02-01T14:29:00.746Z,2.97
2023-02-01T14:31:41.726Z,2.80
2023-02-01T14:34:20.004Z,2.45
2023-02-01T14:36:54.310Z,2.10
2023-02-01T14:39:29.234Z,2.55
2023-02-01T14:42:02.620Z,3.80
2023-02-01T14:44:37.239Z,2.65
2023-02-01T14:47:35.795Z,2.45
2023-02-01T14:50:36.779Z,2.75
2023-02-01T14:53:21.521Z,2.17
2023-02-01T14:55:53.019Z,2.80
2023-02-01T14:58:29.763Z,2.53
2023-02-01T15:01:00.574Z,3.38
2023-02-01T15:03:44.031Z,3.20
2023-02-01T15:06:25.105Z,3.10
2023-02-01T15:08:58.358Z,3.30
2023-02-01T15:11:26.587Z,3.08
2023-02-01T15:13:59.135Z,3.65
2023-02-01T15:16:28.246Z,3.63
2023-02-01T15:19:15.903Z,4.47
2023-02-01T15:21:49.425Z,3.30
2023-02-01T15:24:22.961Z,3.53
2023-02-01T15:26:51.855Z,3.70
2023-02-01T15:29:21.452Z,3.50
2023-02-01T15:31:51.939Z,4.15
2023-02-01T15:34:20.727Z,3.53
2023-02-01T15:37:02.089Z,4.32
2023-02-01T15:39:35.874Z,4.35
2023-02-01T15:42:16.343Z,3.85
2023-02-01T15:44:47.028Z,3.92
2023-02-01T15:47:18.694Z,3.70
2023-02-01T15:49:52.061Z,1.60
2023-02-01T15:52:26.893Z,0.73
2023-02-01T15:54:59.097Z,0.85
2023-02-01T15:57:32.686Z,0.80
2023-02-01T16:00:05.099Z,0.90
2023-02-01T16:02:38.885Z,1.08
2023-02-01T16:05:27.063Z,1.02
2023-02-01T16:08:04.499Z,1.20
2023-02-01T16:10:42.966Z,1.75
2023-02-01T16:13:11.211Z,1.70
2023-02-01T16:15:39.990Z,2.05
2023-02-01T16:18:09.235Z,1.40
2023-02-01T16:20:38.717Z,1.25
2023-02-01T16:23:10.080Z,1.30
2023-02-01T16:25:42.173Z,1.10
2023-02-01T16:28:10.493Z,1.48
2023-02-01T16:30:38.930Z,2.13
2023-02-01T16:33:23.019Z,0.90
2023-02-01T16:35:58.137Z,1.10
2023-02-01T16:38:27.303Z,1.52
2023-02-01T16:40:58.559Z,1.70
2023-02-01T16:43:30.547Z,1.50
2023-02-01T16:46:03.471Z,1.30
2023-02-01T16:48:34.017Z,1.20
2023-02-01T16:51:08.230Z,1.92
2023-02-01T16:53:48.532Z,1.45
2023-02-01T16:56:25.030Z,1.80
2023-02-01T16:58:55.302Z,1.60
2023-02-01T17:01:23.832Z,1.90
2023-02-01T17:03:52.597Z,1.58
2023-02-01T17:06:23.630Z,1.10
2023-02-01T17:08:55.793Z,1.08
2023-02-01T17:11:25.522Z,1.60
2023-02-01T17:13:53.794Z,1.60
2023-02-01T17:16:29.370Z,1.70
2023-02-01T17:19:00.505Z,1.98
2023-02-01T17:21:32.044Z,2.00
2023-02-01T17:24:01.266Z,1.80
2023-02-01T17:26:30.857Z,2.38
2023-02-01T17:28:59.100Z,2.35
2023-02-01T17:31:27.435Z,1.75
2023-02-01T17:33:57.533Z,2.33
2023-02-01T17:36:26.962Z,2.25
2023-02-01T17:39:05.387Z,2.92
2023-02-01T17:41:37.061Z,2.75
2023-02-01T17:44:06.065Z,1.90
2023-02-01T17:46:34.383Z,1.90
2023-02-01T17:49:03.736Z,2.28
2023-02-01T17:51:32.677Z,2.03
2023-02-01T17:54:00.910Z,2.53
2023-02-01T17:56:29.842Z,2.10
2023-02-01T17:59:00.157Z,2.30
2023-02-01T18:01:28.468Z,2.10
2023-02-01T18:03:56.923Z,1.80
2023-02-01T18:06:27.554Z,1.83
2023-02-01T18:08:55.896Z,1.98
2023-02-01T18:11:25.530Z,2.08
2023-02-01T18:13:57.482Z,1.85
2023-02-01T18:16:28.866Z,1.80
2023-02-01T18:19:02.348Z,1.92
2023-02-01T18:21:34.714Z,2.38
2023-02-01T18:24:03.137Z,2.70
2023-02-01T18:26:31.709Z,2.47
2023-02-01T18:29:00.092Z,2.03
2023-02-01T18:31:32.720Z,2.38
2023-02-01T18:34:01.933Z,2.22
2023-02-01T18:36:30.784Z,2.28
2023-02-01T18:38:59.101Z,2.28
2023-02-01T18:41:27.755Z,2.80
2023-02-01T18:43:56.060Z,2.45
2023-02-01T18:46:24.476Z,3.28
2023-02-01T18:48:54.526Z,2.58
2023-02-01T18:51:24.483Z,2.38
2023-02-01T18:53:52.771Z,2.72
2023-02-01T18:56:20.958Z,1.70
2023-02-01T18:58:49.724Z,1.75
2023-02-01T19:01:22.491Z,3.22
2023-02-01T19:03:59.477Z,2.35
2023-02-01T19:06:38.377Z,2.65
2023-02-01T19:09:06.710Z,2.40
2023-02-01T19:11:35.103Z,2.38
2023-02-01T19:14:03.674Z,2.47
2023-02-01T19:16:31.784Z,2.67
2023-02-01T19:18:59.935Z,2.90
2023-02-01T19:21:28.211Z,3.00
2023-02-01T19:23:58.492Z,2.42
2023-02-01T19:26:27.045Z,3.90
2023-02-01T19:28:55.671Z,2.50
2023-02-01T19:31:23.840Z,2.85
2023-02-01T19:33:52.147Z,3.80
2023-02-01T19:36:20.333Z,2.65
2023-02-01T19:38:48.448Z,2.63
2023-02-01T19:41:23.224Z,2.53
2023-02-01T19:43:51.487Z,2.08
2023-02-01T19:46:23.183Z,2.40
2023-02-01T19:48:51.475Z,2.58
2023-02-01T19:51:19.833Z,2.42
2023-02-01T19:53:48.120Z,3.75
2023-02-01T19:56:20.091Z,3.03
2023-02-01T19:58:48.678Z,3.28
2023-02-01T20:01:17.512Z,2.63
2023-02-01T20:03:45.891Z,2.35
2023-02-01T20:06:14.017Z,2.55
2023-02-01T20:08:42.266Z,2.75
2023-02-01T20:11:10.706Z,3.03
2023-02-01T20:13:40.260Z,2.63
2023-02-01T20:16:08.581Z,2.30
2023-02-01T20:18:38.831Z,2.33
2023-02-01T20:21:07.171Z,2.67
2023-02-01T20:23:36.838Z,2.20
2023-02-01T20:26:06.988Z,2.60
2023-02-01T20:28:36.340Z,2.45
2023-02-01T20:31:06.425Z,2.80
2023-02-01T20:33:35.573Z,2.65
2023-02-01T20:36:04.225Z,2.50
2023-02-01T20:38:32.705Z,2.47
2023-02-01T20:41:05.177Z,3.58
2023-02-01T20:43:35.480Z,2.25
2023-02-01T20:46:08.873Z,2.38
2023-02-01T20:48:37.220Z,2.60
2023-02-01T20:51:05.854Z,2.40
2023-02-01T20:53:34.075Z,2.97
2023-02-01T20:56:02.397Z,3.00
2023-02-01T20:58:31.408Z,2.50
2023-02-01T21:01:02.007Z,2.90
2023-02-01T21:03:31.784Z,1.70
2023-02-01T21:06:01.294Z,3.45
2023-02-01T21:08:30.595Z,2.30
2023-02-01T21:11:00.390Z,2.00
2023-02-01T21:13:31.443Z,2.00
2023-02-01T21:16:00.370Z,2.63
2023-02-01T21:18:28.767Z,2.80
2023-02-01T21:20:59.014Z,2.40
2023-02-01T21:23:27.181Z,2.33
2023-02-01T21:25:55.789Z,3.35
2023-02-01T21:28:23.973Z,2.20
2023-02-01T21:30:52.925Z,3.17
2023-02-01T21:33:21.149Z,2.03
2023-02-01T21:35:51.593Z,2.55
2023-02-01T21:38:21.215Z,2.25
2023-02-01T21:41:12.315Z,2.40
2023-02-01T21:43:40.777Z,2.30
2023-02-01T21:46:09.313Z,2.95
2023-02-01T21:49:04.742Z,2.63
2023-02-01T21:51:26.541Z,2.13
2023-02-01T21:53:56.228Z,2.20
2023-02-01T21:56:25.001Z,2.65
2023-02-01T21:58:53.145Z,1.85
2023-02-01T22:01:21.535Z,2.40
2023-02-01T22:03:50.293Z,2.10
2023-02-01T22:06:24.595Z,2.15
2023-02-01T22:08:53.526Z,1.95
2023-02-01T22:11:24.780Z,2.00
2023-02-01T22:13:53.373Z,2.28
2023-02-01T22:16:22.229Z,1.95
2023-02-01T22:18:51.112Z,2.08
2023-02-01T22:21:20.117Z,2.03
2023-02-01T22:23:54.307Z,1.60
2023-02-01T22:26:24.674Z,1.98
2023-02-01T22:28:54.202Z,2.13
2023-02-01T22:31:23.483Z,2.17
2023-02-01T22:33:52.154Z,1.80
2023-02-01T22:36:20.622Z,2.20
2023-02-01T22:38:49.504Z,1.88
2023-02-01T22:41:17.724Z,1.77
2023-02-01T22:43:48.120Z,1.88
2023-02-01T22:46:17.757Z,1.83
2023-02-01T22:48:47.667Z,2.13
2023-02-01T22:51:18.914Z,1.98
2023-02-01T22:53:47.449Z,1.80
2023-02-01T22:56:17.239Z,1.50
2023-02-01T22:58:46.981Z,3.05
2023-02-01T23:01:16.501Z,2.13
2023-02-01T23:03:44.655Z,2.45
2023-02-01T23:06:14.047Z,1.67
2023-02-01T23:08:42.399Z,2.10
2023-02-01T23:11:11.714Z,3.17
2023-02-01T23:13:43.300Z,2.00
2023-02-01T23:16:14.718Z,1.52
2023-02-01T23:18:43.033Z,2.38
2023-02-01T23:21:13.324Z,2.40
2023-02-01T23:23:41.788Z,2.63
2023-02-01T23:26:10.747Z,2.20
2023-02-01T23:28:39.486Z,2.58
2023-02-01T23:31:09.371Z,2.08
2023-02-01T23:33:39.735Z,2.30
2023-02-01T23:36:12.175Z,2.72
2023-02-01T23:38:40.451Z,2.30
2023-02-01T23:41:09.087Z,2.08
2023-02-01T23:43:51.384Z,2.47
2023-02-01T23:46:20.113Z,2.92
2023-02-01T23:48:51.695Z,2.70
2023-02-01T23:51:20.807Z,2.58
2023-02-01T23:53:49.009Z,2.70
2023-02-01T23:56:19.632Z,3.40
2023-02-01T23:58:48.618Z,2.58
